Time;durP1;ratioP1;P1;durP2;ratioP2;P2;SDS_P1;SDS_P2;PMS_P1;PMS_P2;Temp;Humidity;BMP_temperature;BMP_pressure;BME280_temperature;BME280_humidity;BME280_pressure;Samples;Min_cycle;Max_cycle;Signal;HPM_P1;HPM_P2
2022/03/30 11:29:40;;;;;;;22.38;12.65;;;;;;;15.08;61.21;99740.34;5423853;23;20380;-70
2022/03/30 11:32:30;;;;;;;21.10;12.52;;;;;;;15.03;60.08;99736.66;4880846;29;20053;-70
2022/03/30 11:35:00;;;;;;;19.17;12.27;;;;;;;14.94;61.09;99735.84;4880807;29;20101;-70
2022/03/30 11:37:29;;;;;;;20.23;12.40;;;;;;;14.87;60.34;99744.63;4879803;29;20768;-69
2022/03/30 11:40:13;;;;;;;20.92;12.50;;;;;;;14.39;62.04;99741.00;4878305;29;20104;-69
2022/03/30 11:42:56;;;;;;;23.23;13.35;;;;;;;14.68;61.13;99731.22;4876697;29;20061;-68
2022/03/30 11:45:46;;;;;;;22.63;13.18;;;;;;;14.35;62.41;99742.78;4879483;29;20044;-67
2022/03/30 11:48:14;;;;;;;22.52;12.95;;;;;;;14.56;61.87;99720.09;4878540;29;20052;-68
2022/03/30 11:50:52;;;;;;;19.50;13.75;;;;;;;14.62;61.15;99732.53;4879411;29;20041;-68
2022/03/30 11:53:26;;;;;;;24.02;13.13;;;;;;;14.66;61.06;99716.97;4879432;29;20503;-68
2022/03/30 11:56:00;;;;;;;23.95;13.27;;;;;;;14.53;62.00;99718.81;4879312;29;20053;-67
2022/03/30 11:58:34;;;;;;;21.20;12.65;;;;;;;14.61;61.62;99715.19;4880536;29;20068;-68
2022/03/30 12:01:09;;;;;;;21.17;14.05;;;;;;;14.64;61.93;99709.06;4880762;29;20041;-68
2022/03/30 12:03:40;;;;;;;29.20;15.73;;;;;;;14.95;60.29;99714.63;4880734;29;20037;-69
2022/03/30 12:06:10;;;;;;;21.73;13.82;;;;;;;14.72;61.47;99707.38;4880716;29;20049;-77
2022/03/30 12:08:46;;;;;;;20.90;13.18;;;;;;;14.83;61.09;99693.28;4881026;29;20045;-76
2022/03/30 12:11:14;;;;;;;22.85;12.93;;;;;;;15.00;61.42;99695.97;4880707;29;20404;-77
2022/03/30 12:13:42;;;;;;;22.17;13.48;;;;;;;14.95;60.67;99695.34;4880943;29;20508;-77
2022/03/30 12:16:13;;;;;;;26.95;15.43;;;;;;;14.91;61.41;99696.00;4881032;29;20060;-76
2022/03/30 12:18:46;;;;;;;21.00;13.85;;;;;;;14.70;62.93;99690.41;4880462;29;20053;-76
2022/03/30 12:21:18;;;;;;;20.83;13.45;;;;;;;14.56;63.30;99674.09;4880652;29;20052;-77
2022/03/30 12:23:55;;;;;;;21.60;13.95;;;;;;;14.61;62.82;99675.84;4880541;29;20041;-77
2022/03/30 12:26:44;;;;;;;23.65;13.50;;;;;;;14.70;63.13;99673.88;4866568;29;20040;-77
2022/03/30 12:29:14;;;;;;;22.10;13.32;;;;;;;14.91;63.12;99662.16;4878570;29;20393;-77
2022/03/30 12:31:49;;;;;;;27.00;13.05;;;;;;;14.87;62.23;99667.50;4880498;29;20385;-77
2022/03/30 12:34:20;;;;;;;21.80;13.10;;;;;;;14.73;61.75;99653.13;4861806;29;20053;-76
2022/03/30 12:36:53;;;;;;;22.63;13.52;;;;;;;14.56;62.81;99662.28;4859669;29;20057;-77
2022/03/30 12:39:27;;;;;;;24.58;14.48;;;;;;;14.48;63.35;99645.44;4858806;29;20053;-76
2022/03/30 12:42:23;;;;;;;26.42;13.35;;;;;;;14.74;62.25;99649.22;4846512;29;20053;-76
2022/03/30 12:44:58;;;;;;;28.60;16.30;;;;;;;14.81;62.48;99652.28;4871852;29;20056;-77
2022/03/30 12:47:33;;;;;;;27.52;13.30;;;;;;;14.64;62.27;99655.91;4844381;29;20583;-76
2022/03/30 12:50:32;;;;;;;21.25;13.13;;;;;;;14.59;62.00;99645.09;4862223;29;20052;-76
2022/03/30 12:53:05;;;;;;;18.38;12.13;;;;;;;14.51;62.31;99643.97;4857846;29;20626;-77
2022/03/30 12:55:37;;;;;;;23.58;13.15;;;;;;;14.36;63.05;99634.31;4858786;29;20467;-77
2022/03/30 12:58:13;;;;;;;19.33;12.07;;;;;;;14.17;64.21;99629.22;4859327;29;20061;-77
2022/03/30 13:00:43;;;;;;;19.35;12.23;;;;;;;14.21;63.46;99632.91;4844545;29;20086;-76
2022/03/30 13:03:19;;;;;;;20.83;12.73;;;;;;;14.40;63.11;99620.69;4845727;29;20049;-76
2022/03/30 13:05:49;;;;;;;22.10;12.55;;;;;;;14.27;63.55;99625.28;4860959;29;20049;-76
2022/03/30 13:08:21;;;;;;;20.02;12.18;;;;;;;14.41;63.30;99623.13;4846390;29;20488;-75
2022/03/30 13:10:55;;;;;;;17.98;12.38;;;;;;;14.46;63.70;99622.94;4860472;29;20075;-76
2022/03/30 13:13:26;;;;;;;25.00;12.57;;;;;;;14.29;63.98;99620.25;4856698;29;20053;-76
2022/03/30 13:16:12;;;;;;;19.95;12.30;;;;;;;14.20;64.15;99601.84;4844547;29;20061;-76
2022/03/30 13:19:06;;;;;;;18.40;12.27;;;;;;;14.31;64.38;99616.03;4855059;29;20041;-76
2022/03/30 13:21:36;;;;;;;21.55;13.02;;;;;;;14.37;63.96;99608.41;4853824;29;20053;-76
2022/03/30 13:24:34;;;;;;;22.38;13.45;;;;;;;14.21;64.56;99599.88;4845319;29;20061;-76
2022/03/30 13:27:04;;;;;;;21.45;12.90;;;;;;;14.35;64.43;99600.50;4828462;29;20061;-76
2022/03/30 13:29:33;;;;;;;18.77;12.35;;;;;;;14.36;63.62;99590.28;4855413;29;20407;-76
2022/03/30 13:32:02;;;;;;;23.52;12.77;;;;;;;14.37;63.48;99587.19;4860365;29;20052;-75
2022/03/30 13:34:30;;;;;;;21.65;13.40;;;;;;;14.29;63.43;99574.28;4844852;29;20507;-75
2022/03/30 13:36:58;;;;;;;20.80;12.63;;;;;;;14.31;63.32;99572.00;4878294;29;20048;-75
2022/03/30 13:39:26;;;;;;;33.75;13.70;;;;;;;14.29;62.89;99571.53;4879452;29;20396;-76
2022/03/30 13:41:55;;;;;;;25.52;12.77;;;;;;;14.37;62.73;99580.88;4879345;29;20056;-75
2022/03/30 13:44:24;;;;;;;25.60;13.73;;;;;;;14.28;62.43;99569.13;4879315;29;20057;-75
2022/03/30 13:46:52;;;;;;;24.08;12.60;;;;;;;14.08;62.59;99563.19;4877745;29;20060;-75
2022/03/30 13:49:40;;;;;;;25.50;13.02;;;;;;;14.26;62.99;99565.91;4879050;29;20061;-75
2022/03/30 13:52:08;;;;;;;22.02;13.35;;;;;;;14.22;62.74;99555.53;4877828;29;20056;-75
2022/03/30 13:54:37;;;;;;;23.00;12.30;;;;;;;14.24;62.27;99546.97;4879089;29;20061;-75
2022/03/30 13:57:05;;;;;;;20.00;12.10;;;;;;;14.30;62.19;99550.31;4878390;29;20068;-74
2022/03/30 13:59:39;;;;;;;27.40;12.93;;;;;;;14.28;62.45;99555.34;4876547;29;20049;-75
2022/03/30 14:02:11;;;;;;;23.02;12.48;;;;;;;14.41;61.86;99540.56;4877544;29;20053;-75
2022/03/30 14:04:40;;;;;;;20.30;11.85;;;;;;;14.30;62.13;99542.06;4877175;29;20056;-75
2022/03/30 14:07:08;;;;;;;16.65;12.50;;;;;;;14.47;60.93;99553.00;4878427;29;20052;-75
2022/03/30 14:09:41;;;;;;;20.90;12.65;;;;;;;14.26;61.49;99539.16;4871592;29;20053;-75
2022/03/30 14:12:09;;;;;;;23.77;12.63;;;;;;;14.27;61.35;99546.28;4878760;29;20045;-75
2022/03/30 14:14:37;;;;;;;22.85;12.02;;;;;;;14.26;61.48;99538.38;4876896;29;20048;-75
2022/03/30 14:17:05;;;;;;;21.13;11.50;;;;;;;14.17;61.91;99536.44;4878665;29;20057;-75
2022/03/30 14:19:33;;;;;;;24.77;12.50;;;;;;;14.09;62.49;99537.31;4877404;29;20041;-74
2022/03/30 14:22:01;;;;;;;18.67;11.82;;;;;;;14.09;62.41;99521.59;4878489;29;20412;-75
2022/03/30 14:24:29;;;;;;;20.90;11.27;;;;;;;14.14;62.71;99519.81;4877250;29;20497;-75
2022/03/30 14:26:57;;;;;;;16.95;10.68;;;;;;;14.28;61.63;99520.41;4878488;29;20076;-75
2022/03/30 14:29:25;;;;;;;23.88;12.02;;;;;;;14.22;61.89;99511.50;4876395;29;20127;-75
2022/03/30 14:31:54;;;;;;;21.17;10.82;;;;;;;14.22;62.28;99499.69;4877591;29;20048;-75
2022/03/30 14:34:22;;;;;;;20.50;11.38;;;;;;;14.24;62.06;99503.72;4876851;29;20049;-75
2022/03/30 14:36:50;;;;;;;22.58;11.55;;;;;;;14.27;61.96;99495.97;4876963;29;20049;-75
2022/03/30 14:39:18;;;;;;;24.10;10.82;;;;;;;14.34;61.77;99507.25;4877899;29;20057;-75
2022/03/30 14:41:49;;;;;;;25.75;12.38;;;;;;;14.35;61.69;99503.34;4877367;29;20045;-74
2022/03/30 14:44:18;;;;;;;19.77;11.07;;;;;;;14.11;62.47;99494.56;4877753;29;20041;-74
2022/03/30 14:46:46;;;;;;;18.98;11.57;;;;;;;14.33;61.83;99500.13;4876520;29;20452;-74
2022/03/30 14:49:20;;;;;;;24.83;12.67;;;;;;;14.35;61.38;99492.34;4876678;29;20053;-75
2022/03/30 14:51:48;;;;;;;22.35;12.63;;;;;;;14.34;61.66;99493.47;4876662;29;20056;-75
2022/03/30 14:54:16;;;;;;;23.08;12.57;;;;;;;14.18;62.10;99483.03;4876245;29;20057;-74
2022/03/30 14:56:44;;;;;;;22.45;11.73;;;;;;;14.15;62.08;99478.22;4876684;29;20350;-75
2022/03/30 14:59:12;;;;;;;18.27;10.65;;;;;;;14.26;62.05;99467.63;4874836;29;20145;-74
2022/03/30 15:01:40;;;;;;;20.15;11.88;;;;;;;14.37;61.74;99473.53;4875229;29;20408;-74
2022/03/30 15:04:08;;;;;;;19.67;12.70;;;;;;;14.42;61.64;99476.09;4877082;29;20053;-74
2022/03/30 15:06:37;;;;;;;26.83;13.57;;;;;;;14.22;62.33;99455.66;4876884;29;20049;-74
2022/03/30 15:09:05;;;;;;;22.80;12.35;;;;;;;14.33;61.71;99462.41;4875813;29;20057;-74
2022/03/30 15:11:34;;;;;;;21.60;11.55;;;;;;;14.26;61.79;99458.59;4876795;29;20060;-74
2022/03/30 15:14:03;;;;;;;23.85;13.45;;;;;;;14.20;61.98;99447.75;4875503;29;20503;-75
2022/03/30 15:16:31;;;;;;;23.80;12.80;;;;;;;14.24;62.14;99454.19;4874064;29;20492;-74
2022/03/30 15:18:59;;;;;;;23.10;13.27;;;;;;;14.04;63.15;99436.53;4875386;29;20037;-74
2022/03/30 15:21:28;;;;;;;23.77;13.45;;;;;;;14.08;63.10;99444.91;4876263;29;20048;-75
2022/03/30 15:23:56;;;;;;;19.15;11.60;;;;;;;14.09;63.76;99446.53;4875281;29;20393;-75
2022/03/30 15:26:25;;;;;;;20.58;11.73;;;;;;;13.80;65.71;99442.59;4876399;29;20046;-68
2022/03/30 15:28:53;;;;;;;27.58;12.45;;;;;;;13.54;68.64;99451.75;4876160;29;20105;-68
2022/03/30 15:31:23;;;;;;;19.80;10.65;;;;;;;13.31;70.88;99443.69;4876634;29;20445;-68
2022/03/30 15:33:51;;;;;;;18.52;11.63;;;;;;;13.11;73.29;99451.47;4876085;29;20049;-68
2022/03/30 15:36:19;;;;;;;22.23;13.10;;;;;;;13.01;75.77;99449.06;4876894;29;20049;-69
2022/03/30 15:38:48;;;;;;;22.85;13.15;;;;;;;12.73;78.75;99447.47;4877347;29;20407;-68
2022/03/30 15:41:16;;;;;;;21.90;13.98;;;;;;;12.71;79.40;99440.69;4876591;29;20068;-69
2022/03/30 15:43:44;;;;;;;21.42;12.70;;;;;;;12.63;80.72;99445.81;4876269;29;20045;-69
2022/03/30 15:46:12;;;;;;;23.40;12.80;;;;;;;12.76;80.76;99429.53;4875747;29;20612;-69
2022/03/30 15:48:40;;;;;;;24.05;11.88;;;;;;;12.62;81.15;99446.94;4874759;29;20468;-68
2022/03/30 15:51:08;;;;;;;25.40;13.68;;;;;;;12.56;82.35;99445.50;4874643;29;20053;-68
2022/03/30 15:53:38;;;;;;;28.73;13.07;;;;;;;12.45;83.04;99434.03;4876115;29;20495;-68
2022/03/30 15:56:06;;;;;;;21.00;13.10;;;;;;;12.42;83.74;99433.88;4873802;29;20057;-68
2022/03/30 15:58:36;;;;;;;22.70;12.30;;;;;;;12.35;84.29;99426.91;4876542;29;20053;-68
2022/03/30 16:01:05;;;;;;;21.98;12.02;;;;;;;12.55;83.20;99421.94;4872952;29;20354;-68
2022/03/30 16:03:36;;;;;;;18.60;12.00;;;;;;;12.55;83.04;99399.97;4876149;29;20464;-68
2022/03/30 16:06:07;;;;;;;32.40;13.02;;;;;;;12.46;83.66;99396.44;4874283;29;20049;-68
2022/03/30 16:08:58;;;;;;;23.98;12.13;;;;;;;12.63;83.23;99404.66;4876791;29;20102;-69
2022/03/30 16:14:23;;;;;;;25.10;14.70;;;;;;;12.56;83.00;99393.34;4878371;29;20041;-68
2022/03/30 16:16:52;;;;;;;24.83;11.82;;;;;;;12.69;82.60;99396.25;4875844;29;20500;-68
2022/03/30 16:19:21;;;;;;;24.42;12.88;;;;;;;12.58;83.08;99382.88;4876734;29;20075;-68
2022/03/30 16:21:50;;;;;;;22.83;11.75;;;;;;;12.51;83.14;99393.50;4876132;29;20049;-68
2022/03/30 16:24:23;;;;;;;23.05;12.60;;;;;;;12.48;83.27;99394.16;4876664;29;20068;-68
2022/03/30 16:26:56;;;;;;;25.38;12.55;;;;;;;12.36;84.08;99389.28;4877330;29;20037;-68
2022/03/30 16:29:26;;;;;;;24.35;13.70;;;;;;;12.47;83.25;99376.09;4877064;29;20053;-68
2022/03/30 16:31:58;;;;;;;23.15;12.32;;;;;;;12.55;83.01;99379.94;4877273;29;20075;-69
2022/03/30 16:34:26;;;;;;;29.15;13.93;;;;;;;12.49;82.67;99380.13;4876814;29;20068;-69
2022/03/30 16:36:55;;;;;;;24.45;12.93;;;;;;;12.39;83.13;99382.38;4879124;29;20523;-68
2022/03/30 16:39:29;;;;;;;25.65;12.90;;;;;;;12.51;82.75;99393.50;4878394;29;20377;-68
2022/03/30 16:41:59;;;;;;;22.27;13.30;;;;;;;12.42;82.42;99384.47;4879497;29;20049;-68
2022/03/30 16:44:28;;;;;;;22.52;13.20;;;;;;;12.25;83.69;99402.53;4879459;29;20060;-68
2022/03/30 16:46:56;;;;;;;22.40;13.25;;;;;;;12.47;82.64;99406.28;4879008;29;20045;-70
2022/03/30 16:49:25;;;;;;;32.50;13.77;;;;;;;12.61;82.55;99398.69;4878398;29;20415;-70
2022/03/30 16:51:53;;;;;;;24.58;12.05;;;;;;;12.80;79.85;99402.25;4879201;29;20045;-70
2022/03/30 16:54:22;;;;;;;25.27;11.43;;;;;;;12.95;80.48;99398.19;4878868;29;20072;-76
2022/03/30 16:56:53;;;;;;;27.40;13.45;;;;;;;13.10;79.01;99397.66;4852178;29;20057;-75
2022/03/30 16:59:21;;;;;;;21.60;13.40;;;;;;;13.02;79.20;99380.06;4844979;29;20053;-76
2022/03/30 17:01:50;;;;;;;24.35;13.48;;;;;;;13.12;78.15;99378.13;4858549;29;20060;-76
2022/03/30 17:04:18;;;;;;;26.83;13.15;;;;;;;13.13;79.52;99375.06;4840035;29;20050;-76
2022/03/30 17:06:46;;;;;;;23.33;13.70;;;;;;;13.23;78.32;99378.56;4842573;29;20053;-76
2022/03/30 17:12:02;;;;;;;26.05;14.50;;;;;;;13.28;77.70;99376.47;4854916;29;20550;-75
2022/03/30 17:14:30;;;;;;;29.05;14.68;;;;;;;13.33;77.64;99378.22;4841294;29;20492;-77
2022/03/30 17:16:58;;;;;;;35.40;15.50;;;;;;;13.20;77.53;99366.28;4855716;29;20056;-77
2022/03/30 17:19:26;;;;;;;27.95;13.93;;;;;;;13.24;77.63;99371.97;4844056;29;20056;-77
2022/03/30 17:21:57;;;;;;;27.63;15.32;;;;;;;13.19;79.29;99374.88;4841956;29;20076;-76
2022/03/30 17:24:28;;;;;;;26.77;16.17;;;;;;;13.04;79.84;99377.81;4859426;29;20050;-77
2022/03/30 17:26:57;;;;;;;28.45;15.70;;;;;;;12.97;80.94;99382.19;4842724;29;20053;-76
2022/03/30 17:29:25;;;;;;;26.92;16.40;;;;;;;13.02;80.40;99380.06;4844960;29;20057;-77
2022/03/30 17:31:53;;;;;;;28.75;15.65;;;;;;;12.97;79.84;99362.97;4853694;29;20042;-77
2022/03/30 17:34:21;;;;;;;22.35;15.68;;;;;;;13.05;79.38;99367.63;4839659;29;20116;-77
2022/03/30 17:36:50;;;;;;;29.50;15.05;;;;;;;13.03;79.49;99354.25;4854550;29;20052;-77
2022/03/30 17:39:18;;;;;;;27.10;16.15;;;;;;;12.91;81.42;99373.31;4862793;29;20049;-77
2022/03/30 17:41:46;;;;;;;26.85;15.60;;;;;;;13.07;79.89;99379.09;4847591;29;20110;-77
2022/03/30 17:44:15;;;;;;;35.72;16.02;;;;;;;12.95;81.54;99368.00;4862840;29;20060;-77
2022/03/30 17:46:44;;;;;;;30.35;16.02;;;;;;;13.03;80.43;99356.16;4862749;29;20069;-77
2022/03/30 17:52:03;;;;;;;27.73;16.27;;;;;;;12.61;83.57;99353.97;4862440;29;20053;-77
2022/03/30 17:54:34;;;;;;;27.80;15.45;;;;;;;12.65;83.64;99365.91;4862690;29;20404;-77
2022/03/30 17:57:04;;;;;;;26.17;15.48;;;;;;;12.67;82.74;99365.59;4847010;29;20049;-76
2022/03/30 17:59:33;;;;;;;27.60;15.75;;;;;;;12.59;83.74;99373.50;4862544;29;20060;-76
2022/03/30 18:02:02;;;;;;;25.92;14.95;;;;;;;12.78;82.04;99375.09;4846816;29;20060;-77
2022/03/30 18:04:31;;;;;;;28.75;15.15;;;;;;;12.80;81.64;99380.28;4862499;29;20076;-76
2022/03/30 18:07:01;;;;;;;27.27;15.60;;;;;;;12.78;81.50;99377.84;4857463;29;20481;-76
2022/03/30 18:09:30;;;;;;;28.35;14.90;;;;;;;12.81;81.33;99379.94;4844789;29;20064;-77
2022/03/30 18:11:59;;;;;;;28.83;15.15;;;;;;;12.87;81.29;99384.13;4857854;29;20045;-76
2022/03/30 18:14:34;;;;;;;26.73;15.38;;;;;;;12.71;82.13;99377.53;4858938;29;20053;-76
2022/03/30 18:17:07;;;;;;;23.55;15.30;;;;;;;12.49;82.62;99371.06;4835761;29;20046;-76
2022/03/30 18:19:44;;;;;;;26.95;16.00;;;;;;;12.41;84.09;99358.97;4859382;29;20052;-76
2022/03/30 18:22:13;;;;;;;30.50;15.50;;;;;;;12.57;82.36;99375.75;4859308;29;20049;-76
2022/03/30 18:24:42;;;;;;;23.08;15.57;;;;;;;12.55;82.43;99367.03;4857137;29;20474;-76
2022/03/30 18:27:11;;;;;;;27.30;15.80;;;;;;;12.68;81.87;99375.44;4853067;29;20069;-76
2022/03/30 18:29:40;;;;;;;27.13;15.82;;;;;;;12.42;83.10;99370.75;4844169;29;20068;-77
2022/03/30 18:32:09;;;;;;;23.83;14.45;;;;;;;12.45;82.77;99378.34;4852298;29;20072;-77
2022/03/30 18:34:38;;;;;;;29.83;16.15;;;;;;;12.34;83.77;99370.44;4830808;29;20056;-76
2022/03/30 18:37:09;;;;;;;29.38;16.38;;;;;;;12.46;82.71;99364.28;4855449;29;20418;-76
2022/03/30 18:39:38;;;;;;;31.08;15.57;;;;;;;12.51;82.00;99368.81;4862267;29;20053;-77
2022/03/30 18:42:06;;;;;;;26.40;14.88;;;;;;;12.30;83.21;99366.72;4841429;29;20050;-77
2022/03/30 18:44:34;;;;;;;28.23;15.45;;;;;;;12.31;82.71;99362.84;4871270;29;20057;-77
2022/03/30 18:47:04;;;;;;;24.30;13.85;;;;;;;12.48;81.60;99377.69;4875203;29;20040;-77
2022/03/30 18:49:32;;;;;;;27.90;16.20;;;;;;;12.53;81.67;99377.53;4872877;29;20059;-77
2022/03/30 18:52:01;;;;;;;29.05;14.68;;;;;;;12.39;82.00;99372.22;4877911;29;20052;-76
2022/03/30 18:54:29;;;;;;;27.63;15.32;;;;;;;12.30;82.26;99363.16;4878118;29;20060;-76
2022/03/30 18:56:58;;;;;;;26.95;14.93;;;;;;;12.36;81.84;99359.94;4878241;29;20064;-77
2022/03/30 18:59:27;;;;;;;29.45;14.43;;;;;;;12.48;80.81;99375.75;4875633;29;20052;-76
2022/03/30 19:01:56;;;;;;;30.23;14.57;;;;;;;12.45;80.36;99373.66;4877016;29;20049;-76
2022/03/30 19:04:24;;;;;;;24.02;14.45;;;;;;;12.50;80.32;99369.94;4876751;29;20045;-76
2022/03/30 19:06:52;;;;;;;28.08;14.23;;;;;;;12.54;79.37;99370.91;4876734;29;20041;-78
2022/03/30 19:09:22;;;;;;;30.60;15.32;;;;;;;12.60;78.69;99380.59;4875760;29;20064;-77
2022/03/30 19:11:51;;;;;;;26.02;13.45;;;;;;;12.56;78.87;99379.63;4877403;29;20041;-76
2022/03/30 19:14:19;;;;;;;29.92;14.68;;;;;;;12.39;79.67;99374.13;4877184;29;20048;-78
2022/03/30 19:16:49;;;;;;;29.15;14.70;;;;;;;12.57;78.66;99372.22;4876412;29;20705;-77
2022/03/30 19:19:17;;;;;;;25.83;14.20;;;;;;;12.68;77.77;99375.44;4876886;29;20053;-76
2022/03/30 19:21:45;;;;;;;30.02;14.27;;;;;;;12.61;78.22;99367.72;4876435;29;20793;-78
2022/03/30 19:24:16;;;;;;;26.70;14.00;;;;;;;12.63;77.42;99368.97;4875707;29;20064;-77
2022/03/30 19:26:44;;;;;;;25.30;13.93;;;;;;;12.71;77.11;99374.78;4875220;29;20048;-76
2022/03/30 19:29:12;;;;;;;26.45;13.23;;;;;;;12.60;77.70;99374.28;4876792;29;20053;-75
2022/03/30 19:31:40;;;;;;;25.35;13.93;;;;;;;12.38;78.62;99358.81;4876987;29;20049;-76
2022/03/30 19:34:08;;;;;;;31.20;14.07;;;;;;;12.55;77.74;99360.72;4877470;29;20370;-76
2022/03/30 19:36:37;;;;;;;28.45;14.52;;;;;;;12.63;77.23;99347.00;4875857;29;20060;-75
2022/03/30 19:39:07;;;;;;;29.45;14.45;;;;;;;12.76;76.68;99355.41;4874512;29;20400;-75
2022/03/30 19:41:36;;;;;;;27.13;15.35;;;;;;;12.38;78.46;99348.66;4874465;29;20440;-77
2022/03/30 19:44:04;;;;;;;26.67;14.52;;;;;;;12.55;78.11;99345.09;4876565;29;20060;-75
2022/03/30 19:46:33;;;;;;;27.20;14.10;;;;;;;12.44;78.68;99324.59;4879628;29;20299;-75
2022/03/30 19:49:02;;;;;;;23.35;14.55;;;;;;;12.55;78.15;99328.63;4880598;29;20049;-76
2022/03/30 19:51:30;;;;;;;30.50;15.60;;;;;;;12.49;78.89;99318.94;4876800;29;20041;-75
2022/03/30 19:53:58;;;;;;;27.17;15.07;;;;;;;12.44;78.15;99313.63;4879797;29;20049;-76
2022/03/30 19:56:26;;;;;;;41.47;17.73;;;;;;;12.58;77.80;99329.91;4877700;29;20048;-75
2022/03/30 19:58:54;;;;;;;34.33;16.50;;;;;;;12.56;78.45;99330.22;4880050;29;20048;-76
2022/03/30 20:01:22;;;;;;;27.38;16.17;;;;;;;12.48;78.79;99339.28;4879818;29;20045;-77
2022/03/30 20:03:50;;;;;;;33.28;16.50;;;;;;;12.44;78.50;99316.38;4880481;29;20096;-77
2022/03/30 20:06:18;;;;;;;27.52;15.70;;;;;;;12.50;78.78;99326.03;4880659;29;20056;-77
2022/03/30 20:08:47;;;;;;;33.25;16.60;;;;;;;12.55;78.56;99317.66;4880415;29;20048;-77
2022/03/30 20:11:15;;;;;;;34.05;17.58;;;;;;;12.48;79.04;99320.88;4880110;29;20037;-77
2022/03/30 20:13:43;;;;;;;30.88;15.27;;;;;;;12.40;79.15;99313.47;4877580;29;20052;-77
2022/03/30 20:16:11;;;;;;;29.92;15.95;;;;;;;12.35;79.27;99319.09;4879149;29;20065;-78
2022/03/30 20:18:39;;;;;;;34.55;16.73;;;;;;;12.45;78.44;99317.97;4879835;29;20050;-77
2022/03/30 20:21:07;;;;;;;29.70;15.93;;;;;;;12.43;78.54;99310.09;4879235;29;20053;-76
2022/03/30 20:23:35;;;;;;;30.98;15.90;;;;;;;12.51;77.92;99316.66;4880346;29;20049;-77
2022/03/30 20:26:04;;;;;;;29.33;16.40;;;;;;;12.52;77.73;99312.81;4880687;29;20397;-78
2022/03/30 20:28:33;;;;;;;27.92;13.65;;;;;;;12.51;76.86;99311.19;4878967;29;20044;-77
2022/03/30 20:31:06;;;;;;;23.65;13.43;;;;;;;12.53;76.56;99302.63;4879473;29;20071;-78
2022/03/30 20:33:35;;;;;;;27.70;13.68;;;;;;;12.44;76.56;99288.94;4878036;29;20037;-78
2022/03/30 20:36:03;;;;;;;21.73;13.45;;;;;;;12.53;76.35;99308.13;4878841;29;20045;-78
2022/03/30 20:38:31;;;;;;;27.33;13.88;;;;;;;12.47;76.33;99302.78;4879844;29;20435;-77
2022/03/30 20:41:03;;;;;;;23.80;12.75;;;;;;;12.49;75.90;99297.00;4880056;29;20075;-78
2022/03/30 20:43:31;;;;;;;25.33;14.10;;;;;;;12.52;75.92;99298.28;4880580;29;20049;-78
2022/03/30 20:45:59;;;;;;;29.23;13.90;;;;;;;12.58;75.41;99295.06;4880424;29;20064;-78
2022/03/30 20:48:30;;;;;;;38.67;17.90;;;;;;;12.67;74.86;99288.75;4880189;29;20060;-77
2022/03/30 20:51:00;;;;;;;32.05;16.10;;;;;;;12.58;75.09;99289.56;4865412;29;20052;-78
2022/03/30 20:53:28;;;;;;;30.92;17.00;;;;;;;12.50;75.68;99282.13;4874193;29;20045;-78
2022/03/30 20:55:56;;;;;;;31.05;15.00;;;;;;;12.52;75.39;99279.91;4879064;29;20045;-78
2022/03/30 20:58:24;;;;;;;25.25;13.82;;;;;;;12.44;75.31;99266.97;4880173;29;20044;-77
2022/03/30 21:00:52;;;;;;;33.58;15.05;;;;;;;12.40;75.49;99276.97;4880056;29;20049;-78
2022/03/30 21:03:21;;;;;;;23.45;12.93;;;;;;;12.44;75.43;99272.47;4880195;29;20045;-78
2022/03/30 21:05:49;;;;;;;25.75;13.35;;;;;;;12.46;75.31;99275.72;4879898;29;20045;-78
2022/03/30 21:08:18;;;;;;;25.50;14.80;;;;;;;12.40;76.20;99264.06;4880176;29;20408;-78
2022/03/30 21:10:46;;;;;;;27.20;13.10;;;;;;;12.39;75.93;99269.88;4879727;29;20052;-78
2022/03/30 21:13:14;;;;;;;27.58;12.73;;;;;;;12.38;75.84;99262.78;4879787;29;20048;-77
2022/03/30 21:15:43;;;;;;;28.65;14.50;;;;;;;12.47;75.13;99266.34;4879685;29;20049;-78
2022/03/30 21:18:11;;;;;;;26.85;12.38;;;;;;;12.25;76.09;99257.16;4879596;29;20397;-69
2022/03/30 21:20:41;;;;;;;25.80;12.82;;;;;;;12.01;76.79;99260.34;4879538;29;20143;-69
2022/03/30 21:23:14;;;;;;;29.67;12.48;;;;;;;11.82;77.37;99265.03;4879107;29;20147;-70
2022/03/30 21:25:42;;;;;;;23.77;11.32;;;;;;;11.66;77.77;99261.13;4879995;29;20048;-68
2022/03/30 21:28:11;;;;;;;23.58;11.68;;;;;;;11.61;78.14;99255.78;4878738;29;20068;-69
2022/03/30 21:30:40;;;;;;;24.42;11.45;;;;;;;11.56;77.77;99257.56;4879198;29;20497;-69
2022/03/30 21:33:10;;;;;;;24.33;11.38;;;;;;;11.65;78.22;99259.50;4877955;29;20057;-69
2022/03/30 21:35:40;;;;;;;29.63;12.07;;;;;;;11.64;78.54;99250.47;4879357;29;20571;-69
2022/03/30 21:38:12;;;;;;;21.60;11.13;;;;;;;11.62;78.79;99250.00;4879093;29;20373;-69
2022/03/30 21:40:41;;;;;;;30.83;11.68;;;;;;;11.61;78.35;99253.88;4876386;29;20049;-69
2022/03/30 21:43:10;;;;;;;22.38;11.02;;;;;;;11.55;78.76;99244.97;4879538;29;20056;-69
2022/03/30 21:45:38;;;;;;;34.05;11.98;;;;;;;11.58;78.51;99243.53;4878859;29;20045;-69
2022/03/30 21:48:06;;;;;;;29.00;11.40;;;;;;;11.54;78.62;99243.38;4879055;29;20053;-69
2022/03/30 21:50:35;;;;;;;21.10;10.60;;;;;;;11.48;78.89;99243.84;4878470;29;20053;-69
2022/03/30 21:53:04;;;;;;;23.00;11.60;;;;;;;11.44;79.26;99246.41;4878833;29;20049;-69
2022/03/30 21:55:32;;;;;;;25.98;9.93;;;;;;;11.41;78.37;99250.59;4878779;29;20057;-69
2022/03/30 21:57:59;;;;;;;21.10;10.38;;;;;;;11.38;78.69;99244.94;4878706;29;20052;-69
2022/03/30 22:00:58;;;;;;;24.48;10.02;;;;;;;11.35;78.85;99231.88;4878321;29;20056;-69
2022/03/30 22:03:27;;;;;;;26.92;9.60;;;;;;;11.31;78.90;99234.47;4878999;29;20060;-69
2022/03/30 22:05:55;;;;;;;22.65;10.18;;;;;;;11.29;79.33;99226.56;4878537;29;20052;-69
2022/03/30 22:08:23;;;;;;;23.13;10.38;;;;;;;11.31;79.43;99230.91;4878543;29;20527;-69
2022/03/30 22:10:52;;;;;;;18.33;9.85;;;;;;;11.35;79.04;99229.16;4878110;29;20041;-69
2022/03/30 22:13:23;;;;;;;19.05;9.85;;;;;;;11.26;79.86;99229.94;4879055;29;20069;-69
2022/03/30 22:15:51;;;;;;;23.45;9.63;;;;;;;11.21;80.13;99223.78;4878549;29;20056;-70
2022/03/30 22:18:20;;;;;;;18.90;8.13;;;;;;;11.22;80.41;99215.25;4878781;29;20397;-69
2022/03/30 22:20:48;;;;;;;23.33;9.50;;;;;;;11.13;81.85;99211.69;4878549;29;20060;-69
2022/03/30 22:23:16;;;;;;;24.85;8.18;;;;;;;11.19;82.82;99209.63;4878787;29;20053;-70
2022/03/30 22:25:44;;;;;;;23.40;8.40;;;;;;;11.14;82.88;99205.06;4877294;29;20064;-69
2022/03/30 22:28:13;;;;;;;19.73;9.00;;;;;;;11.24;83.67;99199.31;4877908;29;20127;-70
2022/03/30 22:30:41;;;;;;;23.58;9.55;;;;;;;11.22;84.45;99187.88;4878015;29;20500;-69
2022/03/30 22:35:56;;;;;;;26.50;8.68;;;;;;;11.13;85.73;99185.13;4878637;29;20041;-69
2022/03/30 22:38:26;;;;;;;22.88;8.75;;;;;;;11.14;85.28;99178.50;4878469;29;20056;-69
2022/03/30 22:40:57;;;;;;;22.25;8.18;;;;;;;11.10;87.09;99174.00;4878701;29;20064;-69
2022/03/30 22:43:28;;;;;;;20.90;8.95;;;;;;;11.01;87.28;99177.50;4878585;29;20048;-69
2022/03/30 22:45:59;;;;;;;21.65;8.02;;;;;;;11.05;87.23;99163.19;4878629;29;20539;-69
2022/03/30 22:48:28;;;;;;;21.58;8.30;;;;;;;10.99;88.74;99157.88;4878256;29;20412;-69
2022/03/30 22:50:56;;;;;;;18.65;8.15;;;;;;;10.92;89.59;99162.19;4878503;29;20044;-69
2022/03/30 22:53:24;;;;;;;25.05;8.18;;;;;;;10.88;88.75;99159.28;4878625;29;20052;-69
2022/03/30 22:55:52;;;;;;;24.73;8.27;;;;;;;10.87;89.06;99157.66;4878250;29;20064;-69
2022/03/30 22:58:20;;;;;;;28.58;8.55;;;;;;;10.85;89.59;99154.44;4878357;29;20064;-69
2022/03/30 23:00:50;;;;;;;17.85;7.60;;;;;;;10.84;89.51;99139.13;4878271;29;20060;-69
2022/03/30 23:03:18;;;;;;;24.38;7.97;;;;;;;10.85;89.49;99143.50;4878496;29;20060;-69
2022/03/30 23:08:33;;;;;;;19.50;7.65;;;;;;;10.83;89.78;99134.78;4878203;29;20053;-70
2022/03/30 23:11:01;;;;;;;28.50;9.43;;;;;;;10.83;90.56;99124.66;4878065;29;20064;-69
2022/03/30 23:13:40;;;;;;;18.15;9.23;;;;;;;10.89;89.50;99126.13;4878664;29;20045;-69